sensor_id;sensor_type;location;lat;lon;timestamp;pressure;altitude;pressure_sealevel;temperature;humidity
61488;BME280;47351;53.326;-6.298;2024-03-29T00:00:43;97385.70;;;5.67;74.53
61488;BME280;47351;53.326;-6.298;2024-03-29T00:03:38;97387.77;;;5.63;74.59
61488;BME280;47351;53.326;-6.298;2024-03-29T00:06:32;97396.58;;;5.59;74.48
61488;BME280;47351;53.326;-6.298;2024-03-29T00:09:24;97399.72;;;5.55;74.30
61488;BME280;47351;53.326;-6.298;2024-03-29T00:12:15;97400.45;;;5.51;74.11
61488;BME280;47351;53.326;-6.298;2024-03-29T00:15:10;97400.75;;;5.48;74.11
61488;BME280;47351;53.326;-6.298;2024-03-29T00:18:03;97400.46;;;5.47;74.29
61488;BME280;47351;53.326;-6.298;2024-03-29T00:20:55;97399.98;;;5.48;74.14
61488;BME280;47351;53.326;-6.298;2024-03-29T00:23:49;97399.56;;;5.49;73.95
61488;BME280;47351;53.326;-6.298;2024-03-29T00:26:41;97402.51;;;5.49;73.93
61488;BME280;47351;53.326;-6.298;2024-03-29T00:29:33;97403.44;;;5.51;74.25
61488;BME280;47351;53.326;-6.298;2024-03-29T00:32:26;97403.03;;;5.52;74.08
61488;BME280;47351;53.326;-6.298;2024-03-29T00:35:21;97405.36;;;5.50;73.77
61488;BME280;47351;53.326;-6.298;2024-03-29T00:38:18;97411.16;;;5.47;73.42
61488;BME280;47351;53.326;-6.298;2024-03-29T00:41:13;97412.88;;;5.42;72.92
61488;BME280;47351;53.326;-6.298;2024-03-29T00:44:05;97410.72;;;5.38;72.93
61488;BME280;47351;53.326;-6.298;2024-03-29T00:46:59;97414.44;;;5.36;72.97
61488;BME280;47351;53.326;-6.298;2024-03-29T00:49:51;97415.58;;;5.35;73.00
61488;BME280;47351;53.326;-6.298;2024-03-29T00:53:02;97415.67;;;5.34;73.22
61488;BME280;47351;53.326;-6.298;2024-03-29T00:56:05;97418.00;;;5.34;73.38
61488;BME280;47351;53.326;-6.298;2024-03-29T00:59:04;97421.95;;;5.32;73.51
61488;BME280;47351;53.326;-6.298;2024-03-29T01:01:59;97423.17;;;5.31;73.65
61488;BME280;47351;53.326;-6.298;2024-03-29T01:04:56;97424.89;;;5.30;73.76
61488;BME280;47351;53.326;-6.298;2024-03-29T01:07:48;97426.39;;;5.29;74.04
61488;BME280;47351;53.326;-6.298;2024-03-29T01:10:40;97422.56;;;5.31;74.33
61488;BME280;47351;53.326;-6.298;2024-03-29T01:13:41;97425.73;;;5.34;74.21
61488;BME280;47351;53.326;-6.298;2024-03-29T01:16:36;97431.36;;;5.39;74.04
61488;BME280;47351;53.326;-6.298;2024-03-29T01:19:27;97436.71;;;5.42;74.10
61488;BME280;47351;53.326;-6.298;2024-03-29T01:22:21;97439.85;;;5.46;74.24
61488;BME280;47351;53.326;-6.298;2024-03-29T01:25:13;97441.70;;;5.50;74.34
61488;BME280;47351;53.326;-6.298;2024-03-29T01:28:07;97444.34;;;5.51;74.32
61488;BME280;47351;53.326;-6.298;2024-03-29T01:31:03;97445.48;;;5.52;74.23
61488;BME280;47351;53.326;-6.298;2024-03-29T01:33:55;97439.12;;;5.52;74.22
61488;BME280;47351;53.326;-6.298;2024-03-29T01:36:48;97437.28;;;5.52;74.11
61488;BME280;47351;53.326;-6.298;2024-03-29T01:39:40;97434.78;;;5.54;74.17
61488;BME280;47351;53.326;-6.298;2024-03-29T01:42:32;97436.62;;;5.54;74.06
61488;BME280;47351;53.326;-6.298;2024-03-29T01:45:23;97436.62;;;5.53;73.86
61488;BME280;47351;53.326;-6.298;2024-03-29T01:48:16;97435.89;;;5.51;73.59
61488;BME280;47351;53.326;-6.298;2024-03-29T01:51:22;97444.74;;;5.49;73.50
61488;BME280;47351;53.326;-6.298;2024-03-29T01:54:14;97444.02;;;5.47;73.39
61488;BME280;47351;53.326;-6.298;2024-03-29T01:57:07;97440.87;;;5.45;73.32
61488;BME280;47351;53.326;-6.298;2024-03-29T01:59:59;97437.11;;;5.46;73.36
61488;BME280;47351;53.326;-6.298;2024-03-29T02:02:51;97441.29;;;5.49;73.07
61488;BME280;47351;53.326;-6.298;2024-03-29T02:05:42;97443.67;;;5.55;72.60
61488;BME280;47351;53.326;-6.298;2024-03-29T02:08:35;97439.75;;;5.62;72.24
61488;BME280;47351;53.326;-6.298;2024-03-29T02:11:28;97437.66;;;5.71;71.93
61488;BME280;47351;53.326;-6.298;2024-03-29T02:14:26;97437.38;;;5.81;71.71
61488;BME280;47351;53.326;-6.298;2024-03-29T02:17:18;97431.08;;;5.93;71.54
61488;BME280;47351;53.326;-6.298;2024-03-29T02:20:11;97428.98;;;6.05;71.49
61488;BME280;47351;53.326;-6.298;2024-03-29T02:23:18;97430.09;;;6.16;71.51
61488;BME280;47351;53.326;-6.298;2024-03-29T02:26:10;97426.20;;;6.24;71.40
61488;BME280;47351;53.326;-6.298;2024-03-29T02:29:03;97425.07;;;6.31;71.53
61488;BME280;47351;53.326;-6.298;2024-03-29T02:31:54;97425.08;;;6.36;71.37
61488;BME280;47351;53.326;-6.298;2024-03-29T02:34:46;97428.00;;;6.40;71.30
61488;BME280;47351;53.326;-6.298;2024-03-29T02:37:37;97422.39;;;6.43;71.20
61488;BME280;47351;53.326;-6.298;2024-03-29T02:40:29;97428.52;;;6.43;71.05
61488;BME280;47351;53.326;-6.298;2024-03-29T02:43:21;97427.91;;;6.43;71.28
61488;BME280;47351;53.326;-6.298;2024-03-29T02:46:12;97424.88;;;6.46;71.35
61488;BME280;47351;53.326;-6.298;2024-03-29T02:49:05;97418.45;;;6.48;71.48
61488;BME280;47351;53.326;-6.298;2024-03-29T02:51:57;97414.61;;;6.47;71.47
61488;BME280;47351;53.326;-6.298;2024-03-29T02:54:48;97411.02;;;6.44;71.45
61488;BME280;47351;53.326;-6.298;2024-03-29T02:57:40;97412.89;;;6.39;71.61
61488;BME280;47351;53.326;-6.298;2024-03-29T03:00:36;97413.89;;;6.35;71.90
61488;BME280;47351;53.326;-6.298;2024-03-29T03:03:32;97417.35;;;6.32;72.11
61488;BME280;47351;53.326;-6.298;2024-03-29T03:06:24;97414.36;;;6.30;72.29
61488;BME280;47351;53.326;-6.298;2024-03-29T03:09:15;97416.98;;;6.30;72.57
61488;BME280;47351;53.326;-6.298;2024-03-29T03:12:45;97417.39;;;6.31;72.93
61488;BME280;47351;53.326;-6.298;2024-03-29T03:15:37;97417.67;;;6.33;73.14
61488;BME280;47351;53.326;-6.298;2024-03-29T03:18:29;97405.55;;;6.35;73.29
61488;BME280;47351;53.326;-6.298;2024-03-29T03:21:23;97403.14;;;6.37;73.48
61488;BME280;47351;53.326;-6.298;2024-03-29T03:24:14;97397.70;;;6.38;73.57
61488;BME280;47351;53.326;-6.298;2024-03-29T03:27:09;97396.52;;;6.38;73.62
61488;BME280;47351;53.326;-6.298;2024-03-29T03:30:12;97405.34;;;6.38;73.74
61488;BME280;47351;53.326;-6.298;2024-03-29T03:33:13;97413.23;;;6.37;73.87
61488;BME280;47351;53.326;-6.298;2024-03-29T03:36:05;97417.19;;;6.38;74.55
61488;BME280;47351;53.326;-6.298;2024-03-29T03:39:02;97413.81;;;6.42;75.35
61488;BME280;47351;53.326;-6.298;2024-03-29T03:41:57;97406.77;;;6.48;75.96
61488;BME280;47351;53.326;-6.298;2024-03-29T03:44:49;97402.89;;;6.59;76.34
61488;BME280;47351;53.326;-6.298;2024-03-29T03:47:40;97408.13;;;6.71;77.05
61488;BME280;47351;53.326;-6.298;2024-03-29T03:50:32;97413.83;;;6.82;76.84
61488;BME280;47351;53.326;-6.298;2024-03-29T03:53:24;97409.41;;;6.88;76.66
61488;BME280;47351;53.326;-6.298;2024-03-29T03:56:18;97408.66;;;6.92;76.92
61488;BME280;47351;53.326;-6.298;2024-03-29T03:59:10;97406.77;;;6.94;76.86
61488;BME280;47351;53.326;-6.298;2024-03-29T04:02:04;97402.65;;;6.95;76.81
61488;BME280;47351;53.326;-6.298;2024-03-29T04:04:58;97395.50;;;6.93;76.79
61488;BME280;47351;53.326;-6.298;2024-03-29T04:07:50;97390.79;;;6.89;76.85
61488;BME280;47351;53.326;-6.298;2024-03-29T04:10:43;97388.34;;;6.83;76.91
61488;BME280;47351;53.326;-6.298;2024-03-29T04:13:35;97387.27;;;6.78;76.91
61488;BME280;47351;53.326;-6.298;2024-03-29T04:16:29;97382.70;;;6.76;77.06
61488;BME280;47351;53.326;-6.298;2024-03-29T04:19:20;97379.44;;;6.73;77.35
61488;BME280;47351;53.326;-6.298;2024-03-29T04:22:12;97382.81;;;6.72;77.72
61488;BME280;47351;53.326;-6.298;2024-03-29T04:25:03;97383.96;;;6.70;77.81
61488;BME280;47351;53.326;-6.298;2024-03-29T04:27:55;97383.21;;;6.67;77.95
61488;BME280;47351;53.326;-6.298;2024-03-29T04:30:53;97385.15;;;6.63;78.11
61488;BME280;47351;53.326;-6.298;2024-03-29T04:33:44;97385.04;;;6.56;77.99
61488;BME280;47351;53.326;-6.298;2024-03-29T04:36:36;97382.14;;;6.50;78.06
61488;BME280;47351;53.326;-6.298;2024-03-29T04:39:27;97385.95;;;6.46;78.05
61488;BME280;47351;53.326;-6.298;2024-03-29T04:42:19;97386.71;;;6.41;78.22
61488;BME280;47351;53.326;-6.298;2024-03-29T04:45:10;97390.66;;;6.37;78.19
61488;BME280;47351;53.326;-6.298;2024-03-29T04:48:02;97396.80;;;6.34;78.21
61488;BME280;47351;53.326;-6.298;2024-03-29T04:50:57;97399.63;;;6.33;78.21
61488;BME280;47351;53.326;-6.298;2024-03-29T04:53:49;97403.15;;;6.34;78.20
61488;BME280;47351;53.326;-6.298;2024-03-29T04:56:44;97402.64;;;6.37;78.21
61488;BME280;47351;53.326;-6.298;2024-03-29T04:59:35;97410.06;;;6.39;78.39
61488;BME280;47351;53.326;-6.298;2024-03-29T05:02:27;97413.85;;;6.43;78.41
61488;BME280;47351;53.326;-6.298;2024-03-29T05:05:21;97418.63;;;6.43;78.51
61488;BME280;47351;53.326;-6.298;2024-03-29T05:08:13;97421.84;;;6.39;78.62
61488;BME280;47351;53.326;-6.298;2024-03-29T05:11:05;97419.73;;;6.33;78.96
61488;BME280;47351;53.326;-6.298;2024-03-29T05:13:58;97422.95;;;6.28;79.42
61488;BME280;47351;53.326;-6.298;2024-03-29T05:16:51;97422.98;;;6.23;79.65
61488;BME280;47351;53.326;-6.298;2024-03-29T05:19:43;97426.60;;;6.17;79.76
61488;BME280;47351;53.326;-6.298;2024-03-29T05:22:38;97427.81;;;6.12;79.94
61488;BME280;47351;53.326;-6.298;2024-03-29T05:25:30;97426.96;;;6.08;80.21
61488;BME280;47351;53.326;-6.298;2024-03-29T05:28:27;97431.83;;;6.04;80.39
61488;BME280;47351;53.326;-6.298;2024-03-29T05:31:22;97432.58;;;6.01;80.59
61488;BME280;47351;53.326;-6.298;2024-03-29T05:34:16;97430.23;;;5.99;80.74
61488;BME280;47351;53.326;-6.298;2024-03-29T05:37:14;97431.90;;;5.96;80.81
61488;BME280;47351;53.326;-6.298;2024-03-29T05:40:12;97439.70;;;5.92;80.93
61488;BME280;47351;53.326;-6.298;2024-03-29T05:43:07;97446.31;;;5.89;81.09
61488;BME280;47351;53.326;-6.298;2024-03-29T05:46:02;97453.42;;;5.86;81.17
61488;BME280;47351;53.326;-6.298;2024-03-29T05:49:05;97455.60;;;5.80;81.13
61488;BME280;47351;53.326;-6.298;2024-03-29T05:51:56;97457.73;;;5.75;81.06
61488;BME280;47351;53.326;-6.298;2024-03-29T05:54:48;97459.00;;;5.70;81.02
61488;BME280;47351;53.326;-6.298;2024-03-29T05:57:42;97457.50;;;5.65;80.94
61488;BME280;47351;53.326;-6.298;2024-03-29T06:00:37;97455.66;;;5.63;81.11
61488;BME280;47351;53.326;-6.298;2024-03-29T06:03:40;97455.67;;;5.63;81.27
61488;BME280;47351;53.326;-6.298;2024-03-29T06:06:34;97458.36;;;5.65;81.52
61488;BME280;47351;53.326;-6.298;2024-03-29T06:09:26;97460.86;;;5.68;81.74
61488;BME280;47351;53.326;-6.298;2024-03-29T06:12:18;97469.34;;;5.69;81.64
61488;BME280;47351;53.326;-6.298;2024-03-29T06:15:10;97471.30;;;5.69;81.60
61488;BME280;47351;53.326;-6.298;2024-03-29T06:18:21;97468.37;;;5.69;81.47
61488;BME280;47351;53.326;-6.298;2024-03-29T06:21:16;97467.23;;;5.67;81.26
61488;BME280;47351;53.326;-6.298;2024-03-29T06:24:09;97463.67;;;5.64;81.08
61488;BME280;47351;53.326;-6.298;2024-03-29T06:27:07;97459.95;;;5.63;81.14
61488;BME280;47351;53.326;-6.298;2024-03-29T06:30:06;97460.25;;;5.62;81.16
61488;BME280;47351;53.326;-6.298;2024-03-29T06:33:05;97459.80;;;5.63;81.14
61488;BME280;47351;53.326;-6.298;2024-03-29T06:36:03;97459.87;;;5.65;81.10
61488;BME280;47351;53.326;-6.298;2024-03-29T06:38:54;97461.22;;;5.69;81.28
61488;BME280;47351;53.326;-6.298;2024-03-29T06:41:48;97467.45;;;5.75;81.47
61488;BME280;47351;53.326;-6.298;2024-03-29T06:44:43;97465.39;;;5.86;81.80
61488;BME280;47351;53.326;-6.298;2024-03-29T06:47:38;97461.31;;;5.96;81.62
61488;BME280;47351;53.326;-6.298;2024-03-29T06:50:37;97462.34;;;6.07;81.46
61488;BME280;47351;53.326;-6.298;2024-03-29T06:53:28;97467.94;;;6.19;81.37
61488;BME280;47351;53.326;-6.298;2024-03-29T06:56:20;97470.17;;;6.34;81.33
61488;BME280;47351;53.326;-6.298;2024-03-29T06:59:12;97471.50;;;6.50;81.07
61488;BME280;47351;53.326;-6.298;2024-03-29T07:02:05;97471.91;;;6.66;80.88
61488;BME280;47351;53.326;-6.298;2024-03-29T07:04:56;97469.39;;;6.71;80.58
61488;BME280;47351;53.326;-6.298;2024-03-29T07:07:48;97480.10;;;6.75;80.53
61488;BME280;47351;53.326;-6.298;2024-03-29T07:10:40;97483.54;;;6.79;80.53
61488;BME280;47351;53.326;-6.298;2024-03-29T07:13:34;97484.13;;;6.84;80.67
61488;BME280;47351;53.326;-6.298;2024-03-29T07:16:29;97482.50;;;6.89;80.72
61488;BME280;47351;53.326;-6.298;2024-03-29T07:19:20;97484.59;;;6.94;80.54
61488;BME280;47351;53.326;-6.298;2024-03-29T07:22:12;97485.39;;;7.01;80.52
61488;BME280;47351;53.326;-6.298;2024-03-29T07:25:17;97487.23;;;7.05;80.18
61488;BME280;47351;53.326;-6.298;2024-03-29T07:28:08;97499.33;;;7.07;80.10
61488;BME280;47351;53.326;-6.298;2024-03-29T07:31:06;97494.66;;;7.13;79.56
61488;BME280;47351;53.326;-6.298;2024-03-29T07:33:58;97502.89;;;7.21;78.95
61488;BME280;47351;53.326;-6.298;2024-03-29T07:36:49;97504.41;;;7.30;78.61
61488;BME280;47351;53.326;-6.298;2024-03-29T07:39:41;97504.23;;;7.39;78.15
61488;BME280;47351;53.326;-6.298;2024-03-29T07:42:33;97504.67;;;7.45;78.01
61488;BME280;47351;53.326;-6.298;2024-03-29T07:45:25;97506.02;;;7.49;78.08
61488;BME280;47351;53.326;-6.298;2024-03-29T07:48:18;97505.80;;;7.53;78.15
61488;BME280;47351;53.326;-6.298;2024-03-29T07:51:09;97503.48;;;7.61;78.07
61488;BME280;47351;53.326;-6.298;2024-03-29T07:54:01;97504.48;;;7.71;78.04
61488;BME280;47351;53.326;-6.298;2024-03-29T07:56:53;97503.90;;;7.83;77.93
61488;BME280;47351;53.326;-6.298;2024-03-29T07:59:44;97499.77;;;7.96;78.03
61488;BME280;47351;53.326;-6.298;2024-03-29T08:02:36;97503.33;;;8.13;77.86
61488;BME280;47351;53.326;-6.298;2024-03-29T08:05:29;97495.75;;;8.53;77.23
61488;BME280;47351;53.326;-6.298;2024-03-29T08:08:21;97492.58;;;9.89;75.93
61488;BME280;47351;53.326;-6.298;2024-03-29T08:11:12;97491.21;;;11.10;74.57
61488;BME280;47351;53.326;-6.298;2024-03-29T08:14:04;97480.71;;;13.22;72.26
61488;BME280;47351;53.326;-6.298;2024-03-29T08:16:56;97477.15;;;15.29;69.62
61488;BME280;47351;53.326;-6.298;2024-03-29T08:19:52;97479.96;;;16.90;66.61
61488;BME280;47351;53.326;-6.298;2024-03-29T08:22:44;97475.81;;;18.52;61.92
61488;BME280;47351;53.326;-6.298;2024-03-29T08:25:38;97478.14;;;19.35;58.77
61488;BME280;47351;53.326;-6.298;2024-03-29T08:28:29;97484.41;;;20.21;55.67
61488;BME280;47351;53.326;-6.298;2024-03-29T08:31:21;97485.05;;;20.00;53.76
61488;BME280;47351;53.326;-6.298;2024-03-29T08:34:12;97489.38;;;19.49;53.81
61488;BME280;47351;53.326;-6.298;2024-03-29T08:37:05;97495.33;;;18.69;53.56
61488;BME280;47351;53.326;-6.298;2024-03-29T08:39:58;97498.95;;;17.75;53.42
61488;BME280;47351;53.326;-6.298;2024-03-29T08:42:50;97506.86;;;16.87;53.00
61488;BME280;47351;53.326;-6.298;2024-03-29T08:45:41;97512.25;;;16.13;53.29
61488;BME280;47351;53.326;-6.298;2024-03-29T08:48:33;97515.46;;;15.42;52.70
61488;BME280;47351;53.326;-6.298;2024-03-29T08:51:26;97514.23;;;14.97;52.98
61488;BME280;47351;53.326;-6.298;2024-03-29T08:54:18;97516.52;;;14.52;53.40
61488;BME280;47351;53.326;-6.298;2024-03-29T08:57:10;97519.03;;;14.06;54.42
61488;BME280;47351;53.326;-6.298;2024-03-29T09:00:02;97520.63;;;13.61;54.98
61488;BME280;47351;53.326;-6.298;2024-03-29T09:02:55;97524.55;;;13.30;56.08
61488;BME280;47351;53.326;-6.298;2024-03-29T09:05:46;97525.34;;;13.21;56.98
61488;BME280;47351;53.326;-6.298;2024-03-29T09:08:38;97523.34;;;13.16;57.70
61488;BME280;47351;53.326;-6.298;2024-03-29T09:11:29;97522.55;;;13.06;57.25
61488;BME280;47351;53.326;-6.298;2024-03-29T09:14:20;97522.79;;;13.04;56.92
61488;BME280;47351;53.326;-6.298;2024-03-29T09:17:12;97521.79;;;13.05;56.47
61488;BME280;47351;53.326;-6.298;2024-03-29T09:20:04;97523.49;;;12.94;56.26
61488;BME280;47351;53.326;-6.298;2024-03-29T09:22:55;97527.39;;;12.82;56.18
61488;BME280;47351;53.326;-6.298;2024-03-29T09:25:47;97533.86;;;12.64;56.28
61488;BME280;47351;53.326;-6.298;2024-03-29T09:28:38;97539.16;;;12.38;56.54
61488;BME280;47351;53.326;-6.298;2024-03-29T09:31:30;97540.15;;;12.10;56.53
61488;BME280;47351;53.326;-6.298;2024-03-29T09:34:22;97540.13;;;11.82;56.99
61488;BME280;47351;53.326;-6.298;2024-03-29T09:37:13;97540.80;;;11.68;57.41
61488;BME280;47351;53.326;-6.298;2024-03-29T09:40:07;97544.29;;;11.75;57.87
61488;BME280;47351;53.326;-6.298;2024-03-29T09:43:00;97544.52;;;12.05;57.34
61488;BME280;47351;53.326;-6.298;2024-03-29T09:46:05;97541.00;;;12.56;56.41
61488;BME280;47351;53.326;-6.298;2024-03-29T09:48:57;97539.80;;;12.83;55.59
61488;BME280;47351;53.326;-6.298;2024-03-29T09:51:50;97540.29;;;12.80;54.93
61488;BME280;47351;53.326;-6.298;2024-03-29T09:54:42;97539.88;;;12.68;54.85
61488;BME280;47351;53.326;-6.298;2024-03-29T09:57:34;97543.77;;;12.71;54.99
61488;BME280;47351;53.326;-6.298;2024-03-29T10:00:27;97540.27;;;13.02;54.45
61488;BME280;47351;53.326;-6.298;2024-03-29T10:03:18;97542.83;;;13.19;54.30
61488;BME280;47351;53.326;-6.298;2024-03-29T10:06:11;97546.35;;;13.03;54.01
61488;BME280;47351;53.326;-6.298;2024-03-29T10:09:05;97544.73;;;12.82;54.35
61488;BME280;47351;53.326;-6.298;2024-03-29T10:11:56;97545.89;;;12.76;54.59
61488;BME280;47351;53.326;-6.298;2024-03-29T10:14:48;97529.69;;;13.86;53.76
61488;BME280;47351;53.326;-6.298;2024-03-29T10:17:46;97517.96;;;16.90;50.93
61488;BME280;47351;53.326;-6.298;2024-03-29T10:20:39;97511.22;;;20.24;46.06
61488;BME280;47351;53.326;-6.298;2024-03-29T10:23:31;97510.91;;;21.27;43.52
61488;BME280;47351;53.326;-6.298;2024-03-29T10:26:22;97499.80;;;22.45;40.99
61488;BME280;47351;53.326;-6.298;2024-03-29T10:29:14;97504.86;;;22.47;39.84
61488;BME280;47351;53.326;-6.298;2024-03-29T10:32:06;97505.60;;;22.03;37.65
61488;BME280;47351;53.326;-6.298;2024-03-29T10:34:59;97512.29;;;22.57;37.66
61488;BME280;47351;53.326;-6.298;2024-03-29T10:37:53;97504.23;;;23.65;37.06
61488;BME280;47351;53.326;-6.298;2024-03-29T10:40:44;97505.79;;;25.62;35.47
61488;BME280;47351;53.326;-6.298;2024-03-29T10:43:36;97500.85;;;26.39;34.63
61488;BME280;47351;53.326;-6.298;2024-03-29T10:46:30;97499.67;;;26.50;34.56
61488;BME280;47351;53.326;-6.298;2024-03-29T10:49:23;97500.27;;;26.42;33.15
61488;BME280;47351;53.326;-6.298;2024-03-29T10:52:15;97506.24;;;25.09;33.79
61488;BME280;47351;53.326;-6.298;2024-03-29T10:55:11;97501.99;;;23.46;34.63
61488;BME280;47351;53.326;-6.298;2024-03-29T10:58:05;97506.70;;;21.87;35.48
61488;BME280;47351;53.326;-6.298;2024-03-29T11:00:58;97510.16;;;21.29;36.38
61488;BME280;47351;53.326;-6.298;2024-03-29T11:03:53;97507.96;;;20.21;36.50
61488;BME280;47351;53.326;-6.298;2024-03-29T11:06:47;97510.81;;;19.19;37.95
61488;BME280;47351;53.326;-6.298;2024-03-29T11:09:41;97509.79;;;18.47;38.91
61488;BME280;47351;53.326;-6.298;2024-03-29T11:12:57;97511.31;;;17.81;39.29
61488;BME280;47351;53.326;-6.298;2024-03-29T11:15:50;97514.96;;;17.13;39.99
61488;BME280;47351;53.326;-6.298;2024-03-29T11:18:43;97521.23;;;16.57;40.05
61488;BME280;47351;53.326;-6.298;2024-03-29T11:21:37;97524.94;;;16.11;40.89
61488;BME280;47351;53.326;-6.298;2024-03-29T11:24:30;97525.24;;;15.82;41.53
61488;BME280;47351;53.326;-6.298;2024-03-29T11:27:24;97529.79;;;15.57;41.85
61488;BME280;47351;53.326;-6.298;2024-03-29T11:30:19;97527.32;;;15.34;42.59
61488;BME280;47351;53.326;-6.298;2024-03-29T11:33:27;97526.08;;;15.10;43.21
61488;BME280;47351;53.326;-6.298;2024-03-29T11:36:21;97530.34;;;14.79;43.70
61488;BME280;47351;53.326;-6.298;2024-03-29T11:39:21;97531.50;;;14.47;44.51
61488;BME280;47351;53.326;-6.298;2024-03-29T11:42:13;97534.24;;;14.12;45.43
61488;BME280;47351;53.326;-6.298;2024-03-29T11:45:06;97535.77;;;13.72;46.20
61488;BME280;47351;53.326;-6.298;2024-03-29T11:48:03;97539.53;;;13.32;47.52
61488;BME280;47351;53.326;-6.298;2024-03-29T11:50:59;97548.66;;;12.93;49.93
61488;BME280;47351;53.326;-6.298;2024-03-29T11:53:51;97552.83;;;12.53;51.85
61488;BME280;47351;53.326;-6.298;2024-03-29T11:56:43;97551.98;;;12.99;52.69
61488;BME280;47351;53.326;-6.298;2024-03-29T11:59:34;97535.79;;;16.85;49.17
61488;BME280;47351;53.326;-6.298;2024-03-29T12:02:28;97532.79;;;18.90;46.80
61488;BME280;47351;53.326;-6.298;2024-03-29T12:05:20;97533.92;;;18.07;46.32
61488;BME280;47351;53.326;-6.298;2024-03-29T12:08:12;97547.41;;;17.04;46.74
61488;BME280;47351;53.326;-6.298;2024-03-29T12:11:04;97548.46;;;16.09;46.60
61488;BME280;47351;53.326;-6.298;2024-03-29T12:13:56;97550.69;;;15.48;47.84
61488;BME280;47351;53.326;-6.298;2024-03-29T12:16:48;97562.48;;;14.93;48.61
61488;BME280;47351;53.326;-6.298;2024-03-29T12:19:40;97563.38;;;14.84;48.94
61488;BME280;47351;53.326;-6.298;2024-03-29T12:22:34;97561.75;;;14.96;50.08
61488;BME280;47351;53.326;-6.298;2024-03-29T12:25:25;97560.45;;;16.04;49.57
61488;BME280;47351;53.326;-6.298;2024-03-29T12:28:17;97563.58;;;16.29;48.83
61488;BME280;47351;53.326;-6.298;2024-03-29T12:31:11;97564.32;;;16.59;48.45
61488;BME280;47351;53.326;-6.298;2024-03-29T12:34:03;97560.51;;;17.04;48.00
61488;BME280;47351;53.326;-6.298;2024-03-29T12:37:00;97555.75;;;17.57;47.05
61488;BME280;47351;53.326;-6.298;2024-03-29T12:39:51;97551.02;;;18.00;46.25
61488;BME280;47351;53.326;-6.298;2024-03-29T12:42:46;97550.42;;;18.07;45.99
61488;BME280;47351;53.326;-6.298;2024-03-29T12:45:39;97548.48;;;18.24;45.34
61488;BME280;47351;53.326;-6.298;2024-03-29T12:48:35;97544.05;;;18.24;43.42
61488;BME280;47351;53.326;-6.298;2024-03-29T12:51:28;97548.16;;;18.05;43.38
61488;BME280;47351;53.326;-6.298;2024-03-29T12:54:21;97550.44;;;17.83;42.87
61488;BME280;47351;53.326;-6.298;2024-03-29T12:57:13;97556.49;;;17.40;42.95
61488;BME280;47351;53.326;-6.298;2024-03-29T13:00:08;97559.43;;;16.88;43.81
61488;BME280;47351;53.326;-6.298;2024-03-29T13:02:59;97563.23;;;16.43;45.04
61488;BME280;47351;53.326;-6.298;2024-03-29T13:05:51;97563.36;;;16.32;45.43
61488;BME280;47351;53.326;-6.298;2024-03-29T13:08:44;97562.80;;;16.34;45.80
61488;BME280;47351;53.326;-6.298;2024-03-29T13:11:36;97564.61;;;16.19;46.11
61488;BME280;47351;53.326;-6.298;2024-03-29T13:14:27;97565.98;;;15.88;46.63
61488;BME280;47351;53.326;-6.298;2024-03-29T13:17:19;97565.05;;;15.51;47.46
61488;BME280;47351;53.326;-6.298;2024-03-29T13:20:11;97574.05;;;15.13;48.42
61488;BME280;47351;53.326;-6.298;2024-03-29T13:23:03;97577.79;;;14.77;49.24
61488;BME280;47351;53.326;-6.298;2024-03-29T13:25:55;97580.83;;;14.48;50.51
61488;BME280;47351;53.326;-6.298;2024-03-29T13:28:47;97579.45;;;14.13;51.39
61488;BME280;47351;53.326;-6.298;2024-03-29T13:31:39;97578.34;;;13.76;52.18
61488;BME280;47351;53.326;-6.298;2024-03-29T13:34:30;97581.59;;;13.50;53.33
61488;BME280;47351;53.326;-6.298;2024-03-29T13:37:22;97583.99;;;13.43;53.97
61488;BME280;47351;53.326;-6.298;2024-03-29T13:40:17;97585.20;;;13.45;54.75
61488;BME280;47351;53.326;-6.298;2024-03-29T13:43:08;97591.85;;;13.29;55.92
61488;BME280;47351;53.326;-6.298;2024-03-29T13:46:00;97596.20;;;13.46;56.27
61488;BME280;47351;53.326;-6.298;2024-03-29T13:48:51;97585.23;;;14.45;55.60
61488;BME280;47351;53.326;-6.298;2024-03-29T13:51:43;97579.67;;;15.11;54.88
61488;BME280;47351;53.326;-6.298;2024-03-29T13:54:34;97575.33;;;15.45;54.55
61488;BME280;47351;53.326;-6.298;2024-03-29T13:57:26;97583.58;;;15.11;53.82
61488;BME280;47351;53.326;-6.298;2024-03-29T14:00:18;97587.02;;;15.63;52.49
61488;BME280;47351;53.326;-6.298;2024-03-29T14:03:10;97582.27;;;17.89;49.91
61488;BME280;47351;53.326;-6.298;2024-03-29T14:06:01;97583.90;;;17.62;50.05
61488;BME280;47351;53.326;-6.298;2024-03-29T14:08:55;97586.91;;;17.01;50.64
61488;BME280;47351;53.326;-6.298;2024-03-29T14:11:47;97589.88;;;17.03;50.01
61488;BME280;47351;53.326;-6.298;2024-03-29T14:14:39;97588.71;;;18.77;47.35
61488;BME280;47351;53.326;-6.298;2024-03-29T14:17:31;97588.34;;;19.43;46.00
61488;BME280;47351;53.326;-6.298;2024-03-29T14:20:23;97593.39;;;18.44;46.42
61488;BME280;47351;53.326;-6.298;2024-03-29T14:23:14;97600.71;;;17.53;47.63
61488;BME280;47351;53.326;-6.298;2024-03-29T14:26:09;97608.02;;;16.91;48.20
61488;BME280;47351;53.326;-6.298;2024-03-29T14:29:05;97608.22;;;16.35;48.46
61488;BME280;47351;53.326;-6.298;2024-03-29T14:31:57;97615.39;;;15.69;48.50
61488;BME280;47351;53.326;-6.298;2024-03-29T14:34:48;97622.08;;;15.05;48.83
61488;BME280;47351;53.326;-6.298;2024-03-29T14:37:40;97625.02;;;14.55;49.46
61488;BME280;47351;53.326;-6.298;2024-03-29T14:40:31;97633.38;;;14.02;50.18
61488;BME280;47351;53.326;-6.298;2024-03-29T14:43:23;97640.30;;;13.52;51.01
61488;BME280;47351;53.326;-6.298;2024-03-29T14:46:15;97645.76;;;13.18;53.02
61488;BME280;47351;53.326;-6.298;2024-03-29T14:49:07;97647.92;;;12.99;55.28
61488;BME280;47351;53.326;-6.298;2024-03-29T14:52:01;97649.86;;;13.12;56.80
61488;BME280;47351;53.326;-6.298;2024-03-29T14:54:52;97644.86;;;13.84;57.27
61488;BME280;47351;53.326;-6.298;2024-03-29T14:57:44;97636.55;;;14.81;56.12
61488;BME280;47351;53.326;-6.298;2024-03-29T15:00:36;97635.14;;;15.50;54.96
61488;BME280;47351;53.326;-6.298;2024-03-29T15:03:28;97631.75;;;15.99;54.31
61488;BME280;47351;53.326;-6.298;2024-03-29T15:06:19;97628.45;;;16.39;53.27
61488;BME280;47351;53.326;-6.298;2024-03-29T15:09:12;97629.36;;;16.59;52.32
61488;BME280;47351;53.326;-6.298;2024-03-29T15:12:05;97630.80;;;16.79;51.77